Time;durP1;ratioP1;P1;durP2;ratioP2;P2;SDS_P1;SDS_P2;PMS_P1;PMS_P2;Temp;Humidity;BMP_temperature;BMP_pressure;BME280_temperature;BME280_humidity;BME280_pressure;Samples;Min_cycle;Max_cycle;Signal;HPM_P1;HPM_P2
2022/01/25 00:10:41;;;;;;;;;19.50;19.25;;;;;20.50;31.99;102841.78;5044899;28;51197;-44
2022/01/25 00:26:46;;;;;;;;;18.75;18.75;;;;;20.42;31.73;102832.50;5076360;28;51545;-46
2022/01/25 00:29:16;;;;;;;;;22.25;20.50;;;;;20.40;32.05;102833.69;5090469;27;51044;-43
2022/01/25 00:31:42;;;;;;;;;24.00;21.50;;;;;20.40;32.16;102841.94;5060189;28;51327;-45
2022/01/25 00:34:08;;;;;;;;;23.00;23.00;;;;;20.39;32.04;102840.22;5072451;28;52000;-43
2022/01/25 00:36:34;;;;;;;;;21.50;21.50;;;;;20.38;32.27;102844.00;5066214;28;51200;-42
2022/01/25 00:39:00;;;;;;;;;30.75;25.00;;;;;20.36;32.00;102837.81;5078720;28;51133;-44
2022/01/25 00:41:27;;;;;;;;;25.25;24.00;;;;;20.35;32.30;102839.72;5068779;28;51017;-49
2022/01/25 00:43:53;;;;;;;;;26.25;22.00;;;;;20.35;32.32;102842.47;5059443;28;51223;-48
2022/01/25 00:46:21;;;;;;;;;24.50;23.25;;;;;20.34;32.09;102840.75;5059514;28;50945;-42
2022/01/25 00:48:50;;;;;;;;;21.75;20.25;;;;;20.34;32.47;102848.16;5069220;27;51162;-42
2022/01/25 00:56:46;;;;;;;;;24.00;20.50;;;;;20.31;32.28;102842.97;5067828;28;51063;-41
2022/01/25 00:59:14;;;;;;;;;26.00;26.00;;;;;20.29;32.10;102839.53;5061799;28;51029;-43
2022/01/25 01:01:40;;;;;;;;;29.25;22.75;;;;;20.29;32.25;102839.53;5066517;28;51193;-44
2022/01/25 01:04:07;;;;;;;;;25.75;24.75;;;;;20.27;32.19;102833.34;5067152;28;51392;-42
2022/01/25 01:06:33;;;;;;;;;26.00;22.50;;;;;20.26;32.31;102837.16;5065557;28;51025;-42
2022/01/25 01:08:59;;;;;;;;;27.50;24.75;;;;;20.26;32.32;102834.38;5064672;27;51041;-45
2022/01/25 01:11:33;;;;;;;;;28.25;22.75;;;;;20.24;31.85;102834.56;5068788;28;51359;-43
2022/01/25 01:14:10;;;;;;;;;27.25;24.25;;;;;20.22;32.07;102833.88;5071424;27;51744;-42
2022/01/25 01:30:23;;;;;;;;;29.25;27.50;;;;;20.14;32.19;102845.75;5076740;28;50922;-42
2022/01/25 01:43:30;;;;;;;;;26.00;22.50;;;;;20.09;31.99;102850.88;5074518;28;51003;-45
2022/01/25 01:51:03;;;;;;;;;22.50;21.75;;;;;20.07;31.78;102850.22;5062974;28;51106;-42
2022/01/25 01:53:28;;;;;;;;;24.75;22.50;;;;;20.06;32.34;102853.13;5069884;28;51237;-42
2022/01/25 01:55:54;;;;;;;;;26.00;22.25;;;;;20.04;32.31;102853.31;5059357;28;51043;-41
2022/01/25 01:58:19;;;;;;;;;25.75;23.50;;;;;20.04;32.10;102858.81;5058725;28;51106;-44
2022/01/25 02:00:47;;;;;;;;;27.75;26.00;;;;;20.03;32.02;102856.25;5070062;28;51035;-43
2022/01/25 02:03:13;;;;;;;;;25.50;24.50;;;;;20.02;32.28;102860.03;5067852;28;52295;-42
2022/01/25 02:05:39;;;;;;;;;24.25;23.50;;;;;20.01;32.15;102859.16;5073426;27;51074;-44
2022/01/25 02:08:05;;;;;;;;;27.00;23.75;;;;;20.01;32.08;102858.28;5072601;28;50978;-42
2022/01/25 02:10:31;;;;;;;;;25.25;22.25;;;;;19.99;32.29;102861.19;5069194;28;50955;-43
2022/01/25 02:12:56;;;;;;;;;23.50;22.50;;;;;19.99;32.57;102855.69;5059136;28;50933;-42
2022/01/25 02:15:25;;;;;;;;;28.25;24.75;;;;;19.99;32.06;102861.19;5058272;28;52766;-43
2022/01/25 02:23:23;;;;;;;;;15.25;15.00;;;;;19.95;32.15;102865.34;5073280;28;50941;-42
2022/01/25 02:25:50;;;;;;;;;22.75;21.75;;;;;19.95;32.28;102868.09;5073614;27;51878;-43
2022/01/25 02:28:17;;;;;;;;;21.50;19.75;;;;;19.94;32.20;102863.63;5057783;28;51119;-44
2022/01/25 02:30:43;;;;;;;;;24.50;20.25;;;;;19.92;32.28;102868.44;5066433;28;51412;-48
2022/01/25 02:33:09;;;;;;;;;24.25;21.25;;;;;19.92;32.10;102859.31;5064359;28;51072;-42
2022/01/25 02:35:35;;;;;;;;;27.00;25.50;;;;;19.91;32.28;102866.72;5065533;28;51894;-45
2022/01/25 02:38:01;;;;;;;;;27.00;22.00;;;;;19.89;32.21;102863.25;5057994;28;51308;-42
2022/01/25 02:40:27;;;;;;;;;18.50;18.00;;;;;19.89;32.07;102866.84;5065579;28;51642;-44
2022/01/25 02:42:53;;;;;;;;;26.00;23.00;;;;;19.89;32.19;102869.59;5073863;28;51025;-42
2022/01/25 02:45:18;;;;;;;;;22.50;19.00;;;;;19.87;32.22;102857.91;5061094;28;52800;-47
2022/01/25 02:50:28;;;;;;;;;20.75;18.50;;;;;19.85;32.29;102868.25;5072974;28;51134;-46
2022/01/25 02:52:54;;;;;;;;;22.25;19.50;;;;;19.85;32.11;102870.13;5076700;28;51230;-45
2022/01/25 02:55:19;;;;;;;;;21.50;18.75;;;;;19.84;32.44;102868.41;5077228;28;52515;-44
2022/01/25 02:57:46;;;;;;;;;21.25;19.00;;;;;19.83;32.34;102859.31;5060732;28;51162;-42
2022/01/25 03:00:12;;;;;;;;;22.50;19.75;;;;;19.82;32.06;102862.22;5077048;28;50963;-43
2022/01/25 03:02:37;;;;;;;;;19.00;18.75;;;;;19.81;32.39;102864.13;5077240;28;50916;-42
2022/01/25 03:05:04;;;;;;;;;31.25;21.50;;;;;19.81;32.34;102863.25;5061472;28;51725;-42
2022/01/25 03:07:30;;;;;;;;;23.25;21.00;;;;;19.79;32.39;102860.66;5065867;28;51044;-42
2022/01/25 03:09:58;;;;;;;;;20.50;20.50;;;;;19.79;32.46;102859.78;5068866;28;52403;-43
2022/01/25 03:12:33;;;;;;;;;21.00;18.00;;;;;19.78;32.23;102864.44;5075192;28;51266;-41
2022/01/25 03:15:25;;;;;;;;;23.50;19.75;;;;;19.77;32.05;102870.97;5073273;27;52639;-42
2022/01/25 03:17:56;;;;;;;;;17.25;17.25;;;;;19.77;32.38;102867.34;5074774;28;51011;-44
2022/01/25 03:20:35;;;;;;;;;13.25;13.00;;;;;19.77;32.32;102864.59;5076257;28;50964;-45
2022/01/25 03:23:05;;;;;;;;;24.00;20.25;;;;;19.74;32.31;102863.06;5077171;28;50974;-42
2022/01/25 03:25:32;;;;;;;;;21.75;19.50;;;;;19.74;32.40;102863.06;5064917;28;51067;-43
2022/01/25 03:27:58;;;;;;;;;16.50;13.50;;;;;19.74;32.16;102864.97;5066926;28;51127;-41
2022/01/25 03:30:25;;;;;;;;;16.00;16.00;;;;;19.72;32.40;102854.13;5065661;28;51303;-44
2022/01/25 03:32:52;;;;;;;;;21.25;18.50;;;;;19.71;32.40;102854.31;5076499;28;51021;-42
2022/01/25 03:35:18;;;;;;;;;19.00;17.00;;;;;19.71;32.50;102857.91;5066883;28;51810;-42
2022/01/25 03:37:43;;;;;;;;;17.75;17.25;;;;;19.70;32.23;102847.94;5056879;28;50987;-42
2022/01/25 03:40:10;;;;;;;;;22.25;18.25;;;;;19.69;32.49;102840.69;5063958;28;51011;-42
2022/01/25 03:42:37;;;;;;;;;19.75;17.75;;;;;19.68;32.51;102843.63;5076290;28;50985;-43
2022/01/25 03:45:08;;;;;;;;;21.50;18.00;;;;;19.67;32.43;102837.25;5063954;28;51851;-45
2022/01/25 03:50:28;;;;;;;;;19.50;15.00;;;;;19.66;32.50;102826.44;5054292;28;51320;-44
2022/01/25 03:52:54;;;;;;;;;20.25;18.25;;;;;19.65;32.11;102838.47;5059952;28;51086;-46
2022/01/25 03:55:19;;;;;;;;;19.50;17.50;;;;;19.65;32.42;102836.59;5077716;28;51623;-44
2022/01/25 03:57:45;;;;;;;;;23.75;22.25;;;;;19.65;32.06;102839.31;5060283;28;51094;-43
2022/01/25 04:00:11;;;;;;;;;23.25;18.25;;;;;19.64;31.57;102836.75;5073514;28;51030;-42
2022/01/25 04:02:45;;;;;;;;;32.25;30.25;;;;;19.62;31.27;102842.44;5061332;28;51238;-43
2022/01/25 04:05:19;;;;;;;;;32.00;31.00;;;;;19.63;31.07;102840.53;5053991;28;51964;-43
2022/01/25 04:07:50;;;;;;;;;29.75;28.50;;;;;19.59;31.03;102840.88;5060240;28;51458;-46
2022/01/25 04:10:17;;;;;;;;;33.25;30.50;;;;;19.57;30.55;102842.06;5060144;28;50986;-42
2022/01/25 04:12:43;;;;;;;;;33.25;29.75;;;;;19.54;30.53;102845.97;5061251;28;51273;-42
2022/01/25 04:15:10;;;;;;;;;35.25;32.00;;;;;19.51;30.33;102851.81;5060609;28;52016;-44
2022/01/25 04:17:35;;;;;;;;;37.75;29.50;;;;;19.48;30.27;102854.88;5092008;27;51073;-46
2022/01/25 04:20:16;;;;;;;;;34.00;31.50;;;;;19.45;30.29;102860.72;5059683;28;51020;-43
2022/01/25 04:25:26;;;;;;;;;29.50;28.75;;;;;19.38;29.96;102856.91;5065464;28;51041;-42
2022/01/25 04:27:51;;;;;;;;;36.00;32.50;;;;;19.35;29.76;102856.38;5062218;28;51100;-45
2022/01/25 04:30:17;;;;;;;;;36.25;32.75;;;;;19.32;29.72;102860.34;5072211;28;51046;-42
2022/01/25 04:32:47;;;;;;;;;35.25;28.75;;;;;19.29;29.61;102860.69;5061005;28;51216;-42
2022/01/25 04:48:57;;;;;;;;;43.75;35.50;;;;;19.10;29.35;102872.78;5076536;28;51066;-43
2022/01/25 04:51:40;;;;;;;;;40.00;32.00;;;;;19.07;29.31;102866.75;5077484;27;50948;-43
2022/01/25 04:59:45;;;;;;;;;40.00;34.25;;;;;18.95;29.21;102872.53;5078722;28;51182;-42
2022/01/25 05:02:18;;;;;;;;;40.50;36.00;;;;;18.93;29.10;102859.97;5078376;28;51169;-42
2022/01/25 05:04:57;;;;;;;;;41.50;30.75;;;;;18.90;29.18;102866.66;5077763;27;51097;-42
2022/01/25 05:07:40;;;;;;;;;40.50;33.50;;;;;18.87;29.21;102864.25;5063898;28;51703;-43
2022/01/25 05:10:07;;;;;;;;;43.00;35.25;;;;;18.84;29.04;102864.56;5077291;28;50930;-43
2022/01/25 05:15:22;;;;;;;;;35.25;31.75;;;;;18.79;29.17;102874.34;5066932;28;51198;-45
2022/01/25 05:23:16;;;;;;;;;40.25;34.00;;;;;18.70;28.89;102874.28;5059720;28;51102;-45
2022/01/25 05:25:42;;;;;;;;;38.50;34.75;;;;;18.68;29.04;102865.34;5067513;28;50913;-43
2022/01/25 05:28:08;;;;;;;;;37.75;32.25;;;;;18.65;29.07;102864.78;5077893;28;50974;-48
2022/01/25 05:30:33;;;;;;;;;37.25;33.75;;;;;18.64;29.06;102865.78;5061546;28;51210;-44
2022/01/25 05:32:59;;;;;;;;;37.25;32.00;;;;;18.60;29.21;102872.63;5075365;28;51049;-45
2022/01/25 05:35:24;;;;;;;;;40.25;34.75;;;;;18.57;28.94;102865.56;5078765;27;51081;-45
2022/01/25 05:37:50;;;;;;;;;40.75;35.00;;;;;18.55;29.02;102861.25;5070135;28;50880;-44
2022/01/25 05:40:16;;;;;;;;;42.25;36.25;;;;;18.53;29.17;102866.03;5076522;28;51011;-45
2022/01/25 05:43:50;;;;;;;;;43.25;33.75;;;;;18.50;28.95;102863.63;5066940;27;51254;-45
2022/01/25 05:48:11;;;;;;;;;39.50;33.75;;;;;18.45;28.84;102873.22;5063903;28;51283;-43
2022/01/25 05:50:37;;;;;;;;;43.25;35.25;;;;;18.41;29.13;102866.31;5058570;28;51098;-43
2022/01/25 05:53:03;;;;;;;;;33.50;30.50;;;;;18.41;29.27;102860.81;5058359;28;51053;-43
2022/01/25 05:55:28;;;;;;;;;29.00;25.00;;;;;18.40;29.33;102859.09;5062883;28;51062;-44
2022/01/25 05:57:54;;;;;;;;;38.75;32.25;;;;;18.47;29.26;102859.34;5077820;28;51891;-44
2022/01/25 06:00:19;;;;;;;;;33.75;29.75;;;;;18.55;29.21;102869.47;5067802;27;51098;-44
2022/01/25 06:02:46;;;;;;;;;29.00;25.25;;;;;18.65;29.34;102862.03;5058255;28;51338;-44
2022/01/25 06:05:11;;;;;;;;;30.00;28.25;;;;;18.74;29.61;102856.44;5064416;28;50999;-46
2022/01/25 06:07:36;;;;;;;;;29.00;25.00;;;;;18.85;29.43;102855.28;5068008;28;50958;-45
2022/01/25 06:10:03;;;;;;;;;26.25;24.50;;;;;18.96;29.71;102848.66;5068489;28;51024;-45
2022/01/25 06:12:28;;;;;;;;;25.25;24.00;;;;;19.07;29.75;102853.00;5068879;28;51052;-44
2022/01/25 06:14:54;;;;;;;;;25.75;22.75;;;;;19.16;29.59;102849.28;5065996;28;50997;-45
2022/01/25 06:17:19;;;;;;;;;26.00;23.75;;;;;19.25;29.44;102848.28;5059402;28;52399;-42
2022/01/25 06:19:45;;;;;;;;;26.50;22.50;;;;;19.31;29.53;102862.22;5065563;28;51044;-48
2022/01/25 06:22:10;;;;;;;;;26.00;23.00;;;;;19.39;29.66;102864.16;5072851;28;51306;-42
2022/01/25 06:24:36;;;;;;;;;17.25;17.25;;;;;19.46;29.81;102854.19;5072002;27;51173;-43
2022/01/25 06:27:01;;;;;;;;;24.25;22.25;;;;;19.56;29.75;102857.69;5063468;28;51657;-45
2022/01/25 06:29:27;;;;;;;;;18.00;15.75;;;;;19.60;30.06;102859.09;5057449;28;50904;-44
2022/01/25 06:31:52;;;;;;;;;20.50;17.75;;;;;19.69;29.73;102864.59;5057630;28;51600;-43
2022/01/25 06:34:18;;;;;;;;;21.50;20.25;;;;;19.76;29.88;102871.16;5082590;27;51128;-44
2022/01/25 06:36:45;;;;;;;;;16.75;15.00;;;;;19.83;29.92;102866.69;5089821;27;51697;-45
2022/01/25 06:39:10;;;;;;;;;19.75;18.75;;;;;19.91;29.94;102868.59;5057494;28;51037;-44
2022/01/25 06:41:37;;;;;;;;;21.00;19.25;;;;;19.96;29.93;102860.69;5057442;28;51174;-43
2022/01/25 06:44:03;;;;;;;;;20.75;16.00;;;;;20.01;30.07;102858.28;5061631;28;51210;-43
2022/01/25 06:46:29;;;;;;;;;23.75;19.25;;;;;20.04;30.07;102853.31;5062812;28;51949;-42
2022/01/25 06:48:54;;;;;;;;;18.75;16.25;;;;;20.10;30.13;102857.25;5057155;28;51020;-45
2022/01/25 06:51:20;;;;;;;;;22.25;16.75;;;;;20.15;30.08;102846.59;5059234;28;51022;-45
2022/01/25 06:53:45;;;;;;;;;20.00;17.50;;;;;20.21;30.45;102856.03;5057566;28;50965;-46
2022/01/25 06:56:10;;;;;;;;;17.50;16.00;;;;;20.28;30.53;102846.06;5069717;28;51077;-46
2022/01/25 06:58:36;;;;;;;;;20.50;17.75;;;;;20.35;30.44;102850.72;5062013;28;51841;-46
2022/01/25 07:01:02;;;;;;;;;19.00;17.25;;;;;20.41;30.83;102849.16;5072912;28;51096;-45
2022/01/25 07:03:27;;;;;;;;;19.75;17.75;;;;;20.48;30.80;102850.22;5067322;28;50851;-44
2022/01/25 07:05:53;;;;;;;;;16.75;16.75;;;;;20.54;30.99;102851.44;5072136;28;51644;-43
2022/01/25 07:08:18;;;;;;;;;14.25;13.50;;;;;20.60;30.94;102848.81;5060730;28;51009;-43
2022/01/25 07:10:44;;;;;;;;;24.00;20.00;;;;;20.66;31.15;102850.03;5058383;28;51021;-46
2022/01/25 07:13:09;;;;;;;;;17.25;16.25;;;;;20.71;31.20;102856.72;5059758;28;51606;-44
2022/01/25 07:15:35;;;;;;;;;20.50;14.00;;;;;20.78;30.89;102869.78;5071857;27;51205;-42
2022/01/25 07:18:00;;;;;;;;;17.75;15.25;;;;;20.84;31.01;102863.56;5074096;28;51323;-42
2022/01/25 07:20:25;;;;;;;;;18.00;15.75;;;;;20.92;30.91;102866.31;5076287;28;50971;-43
2022/01/25 07:22:52;;;;;;;;;17.75;16.00;;;;;20.98;31.12;102868.38;5061435;28;51012;-41
2022/01/25 07:25:18;;;;;;;;;16.00;14.50;;;;;21.02;31.20;102869.72;5058645;28;51065;-42
2022/01/25 07:27:43;;;;;;;;;14.75;14.50;;;;;21.06;30.79;102864.72;5060279;28;51075;-43
2022/01/25 07:30:09;;;;;;;;;20.25;17.25;;;;;21.08;30.84;102871.78;5057605;28;50981;-43
2022/01/25 07:32:34;;;;;;;;;21.50;16.50;;;;;21.14;31.04;102872.94;5057074;28;50862;-44
2022/01/25 07:35:00;;;;;;;;;21.25;18.00;;;;;21.17;31.08;102883.63;5056707;28;51692;-46
2022/01/25 07:37:25;;;;;;;;;15.25;15.25;;;;;21.23;30.80;102885.66;5067039;28;51081;-43
2022/01/25 07:39:51;;;;;;;;;11.50;11.00;;;;;21.24;30.84;102885.47;5067936;28;52349;-42
2022/01/25 07:42:17;;;;;;;;;24.75;18.00;;;;;21.28;30.56;102888.78;5056279;28;51214;-44
2022/01/25 07:44:44;;;;;;;;;20.25;18.00;;;;;21.33;30.88;102894.59;5055880;28;52116;-40
2022/01/25 07:47:10;;;;;;;;;19.25;15.00;;;;;21.39;30.65;102887.53;5066447;28;50987;-42
2022/01/25 07:49:36;;;;;;;;;18.00;16.50;;;;;21.43;30.89;102886.13;5057526;28;51171;-44
2022/01/25 07:52:02;;;;;;;;;25.00;19.75;;;;;21.48;30.74;102892.84;5087883;27;51472;-45
2022/01/25 07:54:28;;;;;;;;;20.50;20.00;;;;;21.53;30.11;102900.53;5060531;27;51086;-45
2022/01/25 07:56:53;;;;;;;;;27.25;22.25;;;;;21.57;30.07;102902.78;5074791;28;51023;-42
2022/01/25 07:59:19;;;;;;;;;21.75;19.75;;;;;21.63;29.98;102903.09;5059820;28;51096;-46
2022/01/25 08:01:44;;;;;;;;;23.50;23.25;;;;;21.67;30.47;102898.91;5071075;28;50950;-45
2022/01/25 08:04:11;;;;;;;;;29.25;21.25;;;;;21.70;30.22;102901.34;5074710;27;52451;-47
2022/01/25 08:06:37;;;;;;;;;25.75;24.50;;;;;21.73;30.27;102900.97;5075771;27;51432;-50
2022/01/25 08:09:05;;;;;;;;;22.75;21.25;;;;;21.75;30.23;102896.97;5076000;27;51491;-46
2022/01/25 08:11:31;;;;;;;;;25.00;19.75;;;;;21.80;29.78;102908.34;5075755;27;51053;-44
2022/01/25 08:14:11;;;;;;;;;26.75;24.00;;;;;21.83;29.69;102905.22;5072597;27;51084;-47
2022/01/25 08:16:36;;;;;;;;;24.00;23.75;;;;;21.87;30.08;102908.44;5065438;28;51579;-47
2022/01/25 08:19:01;;;;;;;;;27.25;23.75;;;;;21.90;29.81;102906.22;5051174;28;51751;-46
2022/01/25 08:21:27;;;;;;;;;17.25;17.00;;;;;21.93;29.91;102906.88;5055796;28;51101;-44
2022/01/25 08:23:52;;;;;;;;;29.75;22.00;;;;;21.95;29.67;102907.53;5061779;28;51879;-44
2022/01/25 08:26:18;;;;;;;;;22.25;20.50;;;;;21.97;29.20;102919.25;5065806;28;51093;-45
2022/01/25 08:28:44;;;;;;;;;23.50;20.75;;;;;21.96;29.30;102914.78;5061836;28;51080;-45
2022/01/25 08:31:09;;;;;;;;;24.75;21.25;;;;;21.98;29.83;102921.81;5058716;28;51072;-53
2022/01/25 08:33:34;;;;;;;;;21.00;19.75;;;;;21.98;29.73;102912.69;5064357;28;51829;-46
2022/01/25 08:36:00;;;;;;;;;24.25;22.75;;;;;21.99;29.74;102907.00;5062167;27;51311;-47
2022/01/25 08:38:25;;;;;;;;;18.75;14.75;;;;;22.00;29.90;102914.25;5059556;28;50992;-43
2022/01/25 08:40:50;;;;;;;;;21.75;16.75;;;;;22.01;30.10;102909.59;5067228;28;51048;-49
2022/01/25 08:43:16;;;;;;;;;24.50;21.50;;;;;22.03;29.91;102916.63;5065347;28;52570;-50
2022/01/25 08:45:42;;;;;;;;;22.50;20.50;;;;;22.05;29.53;102910.94;5075749;27;51082;-46
2022/01/25 08:48:07;;;;;;;;;24.50;22.50;;;;;22.09;30.07;102915.94;5069966;28;51023;-48
2022/01/25 08:50:33;;;;;;;;;23.00;19.50;;;;;22.12;29.54;102906.44;5075625;28;51109;-45
2022/01/25 08:52:58;;;;;;;;;22.50;20.25;;;;;22.15;29.36;102906.06;5058307;28;51784;-44
2022/01/25 08:55:23;;;;;;;;;21.25;20.00;;;;;22.17;29.42;102910.34;5063349;28;50893;-47
2022/01/25 08:57:49;;;;;;;;;25.25;20.75;;;;;22.21;29.47;102910.00;5072350;28;50978;-48
2022/01/25 09:00:14;;;;;;;;;26.00;20.00;;;;;22.25;29.91;102911.34;5074648;27;50937;-49
2022/01/25 09:02:41;;;;;;;;;22.50;21.00;;;;;22.29;30.06;102913.53;5077804;28;51751;-45
2022/01/25 09:05:07;;;;;;;;;18.50;15.50;;;;;22.33;29.48;102912.13;5073490;28;51098;-43
2022/01/25 09:07:32;;;;;;;;;26.75;24.00;;;;;22.38;30.13;102922.59;5066041;28;51047;-44
2022/01/25 09:09:57;;;;;;;;;21.50;18.00;;;;;22.39;29.70;102922.41;5070086;28;50834;-43
2022/01/25 09:12:23;;;;;;;;;23.00;17.00;;;;;22.41;30.14;102917.59;5080676;27;52741;-44
2022/01/25 09:14:48;;;;;;;;;22.00;21.50;;;;;22.42;29.53;102922.06;5065509;27;51043;-44
2022/01/25 09:17:14;;;;;;;;;17.50;17.00;;;;;22.41;30.08;102920.34;5061797;28;50947;-47
2022/01/25 09:19:39;;;;;;;;;21.75;19.50;;;;;22.39;29.76;102918.78;5069898;28;51009;-43
2022/01/25 09:22:06;;;;;;;;;22.00;20.75;;;;;22.34;29.68;102916.59;5057817;28;51682;-42
2022/01/25 09:24:32;;;;;;;;;26.75;24.75;;;;;22.30;30.00;102922.66;5058309;28;51278;-43
2022/01/25 09:26:58;;;;;;;;;28.25;24.75;;;;;22.22;30.15;102922.75;5065446;28;51149;-43
2022/01/25 09:29:23;;;;;;;;;25.25;22.25;;;;;22.15;30.26;102926.22;5069000;28;51060;-46
2022/01/25 09:31:49;;;;;;;;;21.75;18.75;;;;;22.09;30.48;102931.63;5076938;28;51228;-46
2022/01/25 09:34:15;;;;;;;;;22.50;18.00;;;;;22.02;30.34;102928.72;5077258;27;51436;-50
2022/01/25 09:36:41;;;;;;;;;26.75;18.75;;;;;21.97;30.20;102935.81;5073617;28;51114;-43
2022/01/25 09:39:07;;;;;;;;;25.75;24.00;;;;;21.90;30.38;102933.81;5064121;28;52254;-47
2022/01/25 09:41:32;;;;;;;;;24.75;22.25;;;;;21.85;30.03;102938.97;5074334;28;50989;-49
2022/01/25 09:43:58;;;;;;;;;30.00;24.00;;;;;21.81;30.25;102936.78;5077170;28;51144;-43
2022/01/25 09:46:23;;;;;;;;;23.00;21.25;;;;;21.74;30.00;102931.13;5066865;28;51018;-45
2022/01/25 09:48:49;;;;;;;;;24.00;21.25;;;;;21.70;30.07;102934.44;5065325;28;51003;-43
2022/01/25 09:51:18;;;;;;;;;24.75;23.25;;;;;21.65;30.19;102934.97;5075488;28;51108;-48
2022/01/25 09:53:44;;;;;;;;;28.50;21.75;;;;;21.61;30.10;102937.22;5072884;27;51368;-44
2022/01/25 09:56:09;;;;;;;;;23.25;20.50;;;;;21.55;30.43;102937.94;5060583;28;51246;-48
2022/01/25 09:58:36;;;;;;;;;20.50;17.00;;;;;21.53;30.52;102941.91;5068976;28;50999;-47
2022/01/25 10:01:04;;;;;;;;;26.00;20.50;;;;;21.50;30.40;102956.94;5068427;28;51847;-46
2022/01/25 10:03:38;;;;;;;;;28.50;25.75;;;;;21.47;30.25;102959.19;5075022;28;51565;-42
2022/01/25 10:06:11;;;;;;;;;31.00;28.00;;;;;21.43;30.02;102944.88;5068910;28;50912;-44
2022/01/25 10:08:38;;;;;;;;;35.75;28.75;;;;;21.37;29.50;102945.63;5058763;28;50933;-47
2022/01/25 10:11:12;;;;;;;;;33.25;29.75;;;;;21.37;29.82;102950.28;5064087;28;51057;-41
2022/01/25 10:13:43;;;;;;;;;30.50;26.25;;;;;21.38;29.38;102938.19;5068873;28;51169;-41
2022/01/25 10:16:11;;;;;;;;;28.25;25.75;;;;;21.40;29.64;102941.63;5060077;28;51139;-42
2022/01/25 10:18:50;;;;;;;;;26.00;22.75;;;;;21.44;29.63;102948.50;5060594;28;51140;-52
2022/01/25 10:21:22;;;;;;;;;26.50;23.25;;;;;21.48;29.92;102947.13;5066527;28;52753;-47
2022/01/25 10:24:16;;;;;;;;;26.50;23.75;;;;;21.52;30.17;102953.97;5064193;28;51372;-47
2022/01/25 10:26:47;;;;;;;;;22.50;21.00;;;;;21.55;30.36;102950.84;5053872;28;51084;-48
2022/01/25 10:29:15;;;;;;;;;22.25;19.25;;;;;21.59;30.08;102953.09;5060738;28;51390;-48
2022/01/25 10:31:46;;;;;;;;;21.25;20.25;;;;;21.64;30.47;102949.78;5068023;28;51101;-51
2022/01/25 10:34:15;;;;;;;;;20.25;18.75;;;;;21.70;29.99;102957.34;5063526;28;51547;-43
2022/01/25 10:36:45;;;;;;;;;23.50;20.50;;;;;21.76;30.34;102953.84;5056835;28;51092;-44
2022/01/25 10:39:10;;;;;;;;;22.25;21.50;;;;;21.80;30.35;102958.00;5059679;28;51131;-43
2022/01/25 10:41:36;;;;;;;;;20.25;17.50;;;;;21.85;29.84;102966.56;5056895;28;51800;-44
2022/01/25 10:44:02;;;;;;;;;21.25;18.25;;;;;21.87;29.75;102958.13;5065463;28;51130;-43
2022/01/25 10:46:31;;;;;;;;;23.25;20.00;;;;;21.86;30.03;102951.75;5048478;28;51015;-49
2022/01/25 10:49:12;;;;;;;;;21.50;20.00;;;;;21.90;30.00;102955.00;5061425;28;51222;-46
2022/01/25 10:51:48;;;;;;;;;30.25;24.75;;;;;21.94;30.61;102955.50;5048893;28;52296;-48
2022/01/25 10:54:17;;;;;;;;;24.25;19.75;;;;;21.99;30.93;102964.06;5067452;27;51178;-47
2022/01/25 10:56:59;;;;;;;;;18.00;18.00;;;;;22.05;31.06;102955.09;5075920;28;51316;-46
2022/01/25 10:59:26;;;;;;;;;21.75;20.00;;;;;22.12;31.10;102961.63;5064446;28;51071;-47
2022/01/25 11:02:12;;;;;;;;;19.25;18.00;;;;;22.16;30.50;102963.84;5056420;28;52215;-44
2022/01/25 11:04:39;;;;;;;;;23.50;22.50;;;;;22.18;30.68;102953.47;5055942;28;51197;-47
2022/01/25 11:07:07;;;;;;;;;24.50;21.50;;;;;22.21;30.53;102963.31;5056424;28;51099;-46
2022/01/25 11:09:45;;;;;;;;;18.00;17.50;;;;;22.23;30.51;102952.06;5067308;28;51337;-42
2022/01/25 11:12:14;;;;;;;;;23.00;17.00;;;;;22.27;30.73;102953.41;5063788;28;52131;-50
2022/01/25 11:14:50;;;;;;;;;19.75;16.50;;;;;22.29;30.74;102954.94;5056345;27;51264;-45
2022/01/25 11:17:23;;;;;;;;;21.00;19.50;;;;;22.31;30.55;102955.63;5087408;27;51180;-43
2022/01/25 11:19:48;;;;;;;;;20.25;15.50;;;;;22.33;30.95;102959.06;5086886;27;51059;-42
2022/01/25 11:22:19;;;;;;;;;25.50;21.75;;;;;22.35;30.99;102959.75;5043551;28;52717;-47
2022/01/25 11:24:50;;;;;;;;;37.00;29.50;;;;;22.37;31.06;102954.88;5075885;27;51355;-42
2022/01/25 11:27:16;;;;;;;;;37.25;31.25;;;;;22.38;30.55;102956.59;5068886;28;51050;-46
2022/01/25 11:29:42;;;;;;;;;36.25;30.25;;;;;22.40;31.34;102957.25;5057506;28;51259;-43
2022/01/25 11:32:21;;;;;;;;;32.50;29.25;;;;;22.41;30.81;102947.97;5058619;28;51969;-47
2022/01/25 11:34:48;;;;;;;;;31.75;25.25;;;;;22.44;31.27;102953.09;5072015;27;51375;-44
2022/01/25 11:37:14;;;;;;;;;29.00;24.25;;;;;22.46;31.37;102953.78;5073031;28;51169;-44
2022/01/25 11:39:43;;;;;;;;;30.00;23.75;;;;;22.48;31.29;102951.69;5062847;28;51179;-42
2022/01/25 11:42:10;;;;;;;;;29.25;27.75;;;;;22.52;31.63;102954.09;5071851;28;51024;-54
2022/01/25 11:44:46;;;;;;;;;30.50;24.00;;;;;22.55;31.31;102956.47;5062618;28;51257;-51
2022/01/25 11:47:16;;;;;;;;;29.00;24.00;;;;;22.56;32.01;102949.91;5069695;28;51040;-50
2022/01/25 11:49:52;;;;;;;;;26.50;20.50;;;;;22.59;31.33;102952.28;5069112;28;51360;-43
2022/01/25 11:52:18;;;;;;;;;25.00;23.25;;;;;22.62;31.43;102952.81;5062855;28;51819;-43
2022/01/25 11:54:44;;;;;;;;;30.50;22.25;;;;;22.65;31.51;102952.41;5059746;28;51157;-46
2022/01/25 11:57:16;;;;;;;;;24.75;22.00;;;;;22.68;31.23;102953.94;5057621;28;51174;-48
2022/01/25 11:59:48;;;;;;;;;20.00;18.00;;;;;22.70;31.80;102943.56;5064497;27;51079;-49
2022/01/25 12:02:34;;;;;;;;;22.25;16.75;;;;;22.72;32.09;102931.28;5070634;28;52782;-47
2022/01/25 12:05:14;;;;;;;;;25.00;22.25;;;;;22.75;31.80;102935.56;5065143;28;51474;-46
2022/01/25 12:07:59;;;;;;;;;19.75;19.50;;;;;22.79;31.37;102938.81;5073738;28;51175;-40
2022/01/25 12:10:33;;;;;;;;;20.00;18.50;;;;;22.80;31.45;102937.75;5061178;28;51542;-44
2022/01/25 12:13:25;;;;;;;;;18.75;18.50;;;;;22.82;31.77;102939.28;5059042;28;51025;-45
2022/01/25 12:16:21;;;;;;;;;19.75;17.50;;;;;22.84;31.22;102940.00;5069306;28;51271;-44
2022/01/25 12:19:05;;;;;;;;;20.75;17.00;;;;;22.85;30.98;102936.19;5053621;28;50948;-44
2022/01/25 12:21:46;;;;;;;;;23.75;22.75;;;;;22.87;30.78;102928.56;5063001;28;51043;-43
2022/01/25 12:24:15;;;;;;;;;23.00;18.75;;;;;22.90;31.04;102927.34;5077653;27;52920;-45
2022/01/25 12:27:31;;;;;;;;;18.25;16.00;;;;;22.91;31.00;102918.00;5072458;28;51424;-45
2022/01/25 12:30:34;;;;;;;;;18.75;18.25;;;;;22.94;31.16;102914.88;5060842;27;51197;-43
2022/01/25 12:33:05;;;;;;;;;18.25;18.25;;;;;22.94;30.60;102907.44;5034095;28;51237;-46
2022/01/25 12:35:35;;;;;;;;;18.75;17.50;;;;;22.95;31.01;102917.44;5054971;28;51986;-47
2022/01/25 12:38:06;;;;;;;;;52.50;41.75;;;;;22.91;28.36;102918.84;5062961;28;51157;-44
2022/01/25 12:40:37;;;;;;;;;54.50;41.00;;;;;22.67;27.43;102921.84;5070531;27;51248;-46
2022/01/25 12:43:20;;;;;;;;;47.00;38.25;;;;;22.40;28.10;102903.94;5069093;28;51310;-44
2022/01/25 12:45:49;;;;;;;;;43.50;35.50;;;;;22.26;28.15;102908.38;5075797;27;53298;-45
2022/01/25 12:48:18;;;;;;;;;42.00;32.75;;;;;22.22;28.27;102900.66;5069993;28;51049;-46
2022/01/25 12:50:46;;;;;;;;;41.75;32.25;;;;;22.22;28.13;102889.63;5071757;27;51306;-47
2022/01/25 12:53:15;;;;;;;;;38.75;31.50;;;;;22.24;28.10;102898.56;5065645;28;51054;-45
2022/01/25 12:55:44;;;;;;;;;35.00;30.50;;;;;22.25;28.37;102894.75;5057582;27;51861;-44
2022/01/25 12:58:10;;;;;;;;;32.50;28.50;;;;;22.28;28.56;102894.38;5066416;28;50926;-49